sensor_id;sensor_type;location;lat;lon;timestamp;temperature;humidity
46438;DHT22;32137;48.728;9.142;2023-11-19T00:00:54;7.70;99.90
46438;DHT22;32137;48.728;9.142;2023-11-19T00:03:19;8.00;99.90
46438;DHT22;32137;48.728;9.142;2023-11-19T00:05:45;7.90;99.90
46438;DHT22;32137;48.728;9.142;2023-11-19T00:08:11;7.90;99.90
46438;DHT22;32137;48.728;9.142;2023-11-19T00:10:36;8.00;99.90
46438;DHT22;32137;48.728;9.142;2023-11-19T00:13:02;8.00;99.90
46438;DHT22;32137;48.728;9.142;2023-11-19T00:15:28;7.90;99.90
46438;DHT22;32137;48.728;9.142;2023-11-19T00:17:53;8.00;99.90
46438;DHT22;32137;48.728;9.142;2023-11-19T00:20:19;7.80;99.90
46438;DHT22;32137;48.728;9.142;2023-11-19T00:22:47;8.30;99.90
46438;DHT22;32137;48.728;9.142;2023-11-19T00:25:13;8.40;99.90
46438;DHT22;32137;48.728;9.142;2023-11-19T00:27:39;8.10;99.90
46438;DHT22;32137;48.728;9.142;2023-11-19T00:30:05;8.10;99.90
46438;DHT22;32137;48.728;9.142;2023-11-19T00:32:31;8.10;99.90
46438;DHT22;32137;48.728;9.142;2023-11-19T00:34:57;8.20;99.90
46438;DHT22;32137;48.728;9.142;2023-11-19T00:37:22;8.00;99.90
46438;DHT22;32137;48.728;9.142;2023-11-19T00:39:47;8.30;99.90
46438;DHT22;32137;48.728;9.142;2023-11-19T00:42:13;8.30;99.90
46438;DHT22;32137;48.728;9.142;2023-11-19T00:44:39;8.30;99.90
46438;DHT22;32137;48.728;9.142;2023-11-19T00:47:04;8.80;99.90
46438;DHT22;32137;48.728;9.142;2023-11-19T00:49:30;9.10;99.90
46438;DHT22;32137;48.728;9.142;2023-11-19T00:51:58;9.10;99.90
46438;DHT22;32137;48.728;9.142;2023-11-19T00:54:24;9.60;99.90
46438;DHT22;32137;48.728;9.142;2023-11-19T00:56:51;9.60;99.90
46438;DHT22;32137;48.728;9.142;2023-11-19T00:59:17;9.70;99.90
46438;DHT22;32137;48.728;9.142;2023-11-19T01:01:43;9.50;99.90
46438;DHT22;32137;48.728;9.142;2023-11-19T01:04:08;9.30;99.90
46438;DHT22;32137;48.728;9.142;2023-11-19T01:06:34;9.50;99.90
46438;DHT22;32137;48.728;9.142;2023-11-19T01:08:59;9.60;99.90
46438;DHT22;32137;48.728;9.142;2023-11-19T01:11:25;10.10;99.90
46438;DHT22;32137;48.728;9.142;2023-11-19T01:13:51;9.90;99.90
46438;DHT22;32137;48.728;9.142;2023-11-19T01:16:17;10.10;99.90
46438;DHT22;32137;48.728;9.142;2023-11-19T01:18:43;9.80;99.90
46438;DHT22;32137;48.728;9.142;2023-11-19T01:21:08;9.80;99.90
46438;DHT22;32137;48.728;9.142;2023-11-19T01:23:34;10.20;99.90
46438;DHT22;32137;48.728;9.142;2023-11-19T01:26:02;10.20;99.90
46438;DHT22;32137;48.728;9.142;2023-11-19T01:28:28;10.30;99.90
46438;DHT22;32137;48.728;9.142;2023-11-19T01:30:53;10.20;99.90
46438;DHT22;32137;48.728;9.142;2023-11-19T01:33:19;10.00;99.90
46438;DHT22;32137;48.728;9.142;2023-11-19T01:35:44;10.30;99.90
46438;DHT22;32137;48.728;9.142;2023-11-19T01:38:10;10.60;99.90
46438;DHT22;32137;48.728;9.142;2023-11-19T01:40:36;10.60;99.90
46438;DHT22;32137;48.728;9.142;2023-11-19T01:43:04;10.50;99.90
46438;DHT22;32137;48.728;9.142;2023-11-19T01:45:30;10.10;99.90
46438;DHT22;32137;48.728;9.142;2023-11-19T01:48:00;10.30;99.90
46438;DHT22;32137;48.728;9.142;2023-11-19T01:50:25;10.40;99.90
46438;DHT22;32137;48.728;9.142;2023-11-19T01:52:52;10.50;99.90
46438;DHT22;32137;48.728;9.142;2023-11-19T01:55:18;10.60;99.90
46438;DHT22;32137;48.728;9.142;2023-11-19T01:57:44;10.60;99.90
46438;DHT22;32137;48.728;9.142;2023-11-19T02:00:11;10.60;99.90
46438;DHT22;32137;48.728;9.142;2023-11-19T02:02:37;10.80;99.90
46438;DHT22;32137;48.728;9.142;2023-11-19T02:05:05;10.30;99.90
46438;DHT22;32137;48.728;9.142;2023-11-19T02:07:30;10.80;99.90
46438;DHT22;32137;48.728;9.142;2023-11-19T02:09:56;10.70;99.90
46438;DHT22;32137;48.728;9.142;2023-11-19T02:12:24;10.70;99.90
46438;DHT22;32137;48.728;9.142;2023-11-19T02:14:50;10.30;99.90
46438;DHT22;32137;48.728;9.142;2023-11-19T02:17:25;10.70;99.90
46438;DHT22;32137;48.728;9.142;2023-11-19T02:19:51;10.50;99.90
46438;DHT22;32137;48.728;9.142;2023-11-19T02:22:16;10.30;99.90
46438;DHT22;32137;48.728;9.142;2023-11-19T02:24:42;10.30;99.90
46438;DHT22;32137;48.728;9.142;2023-11-19T02:27:09;10.40;99.90
46438;DHT22;32137;48.728;9.142;2023-11-19T02:29:39;10.40;99.90
46438;DHT22;32137;48.728;9.142;2023-11-19T02:32:04;10.40;99.90
46438;DHT22;32137;48.728;9.142;2023-11-19T02:34:30;10.90;99.90
46438;DHT22;32137;48.728;9.142;2023-11-19T02:36:56;10.40;99.90
46438;DHT22;32137;48.728;9.142;2023-11-19T02:39:21;10.90;99.90
46438;DHT22;32137;48.728;9.142;2023-11-19T02:41:47;10.40;99.90
46438;DHT22;32137;48.728;9.142;2023-11-19T02:44:16;10.50;99.90
46438;DHT22;32137;48.728;9.142;2023-11-19T02:46:41;10.70;99.90
46438;DHT22;32137;48.728;9.142;2023-11-19T02:49:07;11.00;99.90
46438;DHT22;32137;48.728;9.142;2023-11-19T02:51:33;10.60;99.90
46438;DHT22;32137;48.728;9.142;2023-11-19T02:54:00;11.20;99.90
46438;DHT22;32137;48.728;9.142;2023-11-19T02:56:25;11.20;99.90
46438;DHT22;32137;48.728;9.142;2023-11-19T02:58:51;11.20;99.90
46438;DHT22;32137;48.728;9.142;2023-11-19T03:01:21;11.60;99.90
46438;DHT22;32137;48.728;9.142;2023-11-19T03:03:49;11.50;99.90
46438;DHT22;32137;48.728;9.142;2023-11-19T03:06:19;11.40;99.90
46438;DHT22;32137;48.728;9.142;2023-11-19T03:08:46;11.40;99.90
46438;DHT22;32137;48.728;9.142;2023-11-19T03:11:13;11.40;99.90
46438;DHT22;32137;48.728;9.142;2023-11-19T03:13:39;11.10;99.90
46438;DHT22;32137;48.728;9.142;2023-11-19T03:16:04;11.30;99.90
46438;DHT22;32137;48.728;9.142;2023-11-19T03:18:30;11.40;99.90
46438;DHT22;32137;48.728;9.142;2023-11-19T03:20:55;11.20;99.90
46438;DHT22;32137;48.728;9.142;2023-11-19T03:23:22;11.10;99.90
46438;DHT22;32137;48.728;9.142;2023-11-19T03:25:48;11.40;99.90
46438;DHT22;32137;48.728;9.142;2023-11-19T03:28:13;11.20;99.90
46438;DHT22;32137;48.728;9.142;2023-11-19T03:30:39;11.00;99.90
46438;DHT22;32137;48.728;9.142;2023-11-19T03:33:04;11.50;99.90
46438;DHT22;32137;48.728;9.142;2023-11-19T03:35:30;11.20;99.90
46438;DHT22;32137;48.728;9.142;2023-11-19T03:37:55;11.60;99.90
46438;DHT22;32137;48.728;9.142;2023-11-19T03:40:21;11.60;99.90
46438;DHT22;32137;48.728;9.142;2023-11-19T03:42:46;11.70;99.90
46438;DHT22;32137;48.728;9.142;2023-11-19T03:45:12;12.30;99.90
46438;DHT22;32137;48.728;9.142;2023-11-19T03:47:38;12.40;99.90
46438;DHT22;32137;48.728;9.142;2023-11-19T03:50:04;11.90;99.90
46438;DHT22;32137;48.728;9.142;2023-11-19T03:52:29;11.80;99.90
46438;DHT22;32137;48.728;9.142;2023-11-19T03:54:55;11.70;99.90
46438;DHT22;32137;48.728;9.142;2023-11-19T03:57:22;11.60;99.90
46438;DHT22;32137;48.728;9.142;2023-11-19T03:59:47;11.70;99.90
46438;DHT22;32137;48.728;9.142;2023-11-19T04:02:13;11.40;99.90
46438;DHT22;32137;48.728;9.142;2023-11-19T04:04:38;11.30;99.90
46438;DHT22;32137;48.728;9.142;2023-11-19T04:07:04;11.30;99.90
46438;DHT22;32137;48.728;9.142;2023-11-19T04:09:30;11.30;99.90
46438;DHT22;32137;48.728;9.142;2023-11-19T04:11:59;11.20;99.90
46438;DHT22;32137;48.728;9.142;2023-11-19T04:14:25;11.60;99.90
46438;DHT22;32137;48.728;9.142;2023-11-19T04:16:51;11.60;99.90
46438;DHT22;32137;48.728;9.142;2023-11-19T04:19:17;11.50;99.90
46438;DHT22;32137;48.728;9.142;2023-11-19T04:21:42;11.20;99.90
46438;DHT22;32137;48.728;9.142;2023-11-19T04:24:08;11.10;99.90
46438;DHT22;32137;48.728;9.142;2023-11-19T04:26:39;11.20;99.90
46438;DHT22;32137;48.728;9.142;2023-11-19T04:29:04;11.20;99.90
46438;DHT22;32137;48.728;9.142;2023-11-19T04:31:31;11.60;99.90
46438;DHT22;32137;48.728;9.142;2023-11-19T04:33:56;11.10;99.90
46438;DHT22;32137;48.728;9.142;2023-11-19T04:36:22;11.50;99.90
46438;DHT22;32137;48.728;9.142;2023-11-19T04:38:50;11.10;99.90
46438;DHT22;32137;48.728;9.142;2023-11-19T04:41:15;11.40;99.90
46438;DHT22;32137;48.728;9.142;2023-11-19T04:43:41;11.10;99.90
46438;DHT22;32137;48.728;9.142;2023-11-19T04:46:06;11.20;99.90
46438;DHT22;32137;48.728;9.142;2023-11-19T04:48:32;11.60;99.90
46438;DHT22;32137;48.728;9.142;2023-11-19T04:50:57;11.50;99.90
46438;DHT22;32137;48.728;9.142;2023-11-19T04:53:23;11.40;99.90
46438;DHT22;32137;48.728;9.142;2023-11-19T04:55:48;11.40;99.90
46438;DHT22;32137;48.728;9.142;2023-11-19T04:58:14;11.50;99.90
46438;DHT22;32137;48.728;9.142;2023-11-19T05:00:39;11.20;99.90
46438;DHT22;32137;48.728;9.142;2023-11-19T05:03:05;11.40;99.90
46438;DHT22;32137;48.728;9.142;2023-11-19T05:05:30;11.20;99.90
46438;DHT22;32137;48.728;9.142;2023-11-19T05:07:56;11.20;99.90
46438;DHT22;32137;48.728;9.142;2023-11-19T05:10:22;11.70;99.90
46438;DHT22;32137;48.728;9.142;2023-11-19T05:12:47;11.60;99.90
46438;DHT22;32137;48.728;9.142;2023-11-19T05:15:13;11.20;99.90
46438;DHT22;32137;48.728;9.142;2023-11-19T05:17:39;11.70;99.90
46438;DHT22;32137;48.728;9.142;2023-11-19T05:20:04;11.20;99.90
46438;DHT22;32137;48.728;9.142;2023-11-19T05:22:30;11.70;99.90
46438;DHT22;32137;48.728;9.142;2023-11-19T05:24:55;11.50;99.90
46438;DHT22;32137;48.728;9.142;2023-11-19T05:27:21;11.60;99.90
46438;DHT22;32137;48.728;9.142;2023-11-19T05:29:47;11.80;99.90
46438;DHT22;32137;48.728;9.142;2023-11-19T05:32:12;11.50;99.90
46438;DHT22;32137;48.728;9.142;2023-11-19T05:34:38;11.70;99.90
46438;DHT22;32137;48.728;9.142;2023-11-19T05:37:03;11.20;99.90
46438;DHT22;32137;48.728;9.142;2023-11-19T05:39:30;11.30;99.90
46438;DHT22;32137;48.728;9.142;2023-11-19T05:41:56;11.70;99.90
46438;DHT22;32137;48.728;9.142;2023-11-19T05:44:21;11.80;99.90
46438;DHT22;32137;48.728;9.142;2023-11-19T05:46:47;11.80;99.90
46438;DHT22;32137;48.728;9.142;2023-11-19T05:49:12;11.70;99.90
46438;DHT22;32137;48.728;9.142;2023-11-19T05:51:38;11.80;99.90
46438;DHT22;32137;48.728;9.142;2023-11-19T05:54:05;11.80;99.90
46438;DHT22;32137;48.728;9.142;2023-11-19T05:56:32;11.30;99.90
46438;DHT22;32137;48.728;9.142;2023-11-19T05:58:58;11.40;99.90
46438;DHT22;32137;48.728;9.142;2023-11-19T06:01:25;11.80;99.90
46438;DHT22;32137;48.728;9.142;2023-11-19T06:03:51;11.60;99.90
46438;DHT22;32137;48.728;9.142;2023-11-19T06:06:17;11.90;99.90
46438;DHT22;32137;48.728;9.142;2023-11-19T06:08:42;11.80;99.90
46438;DHT22;32137;48.728;9.142;2023-11-19T06:11:09;11.90;99.90
46438;DHT22;32137;48.728;9.142;2023-11-19T06:13:38;11.80;99.90
46438;DHT22;32137;48.728;9.142;2023-11-19T06:16:06;11.90;99.90
46438;DHT22;32137;48.728;9.142;2023-11-19T06:18:32;11.50;99.90
46438;DHT22;32137;48.728;9.142;2023-11-19T06:20:58;12.00;99.90
46438;DHT22;32137;48.728;9.142;2023-11-19T06:23:23;11.90;99.90
46438;DHT22;32137;48.728;9.142;2023-11-19T06:25:49;11.50;99.90
46438;DHT22;32137;48.728;9.142;2023-11-19T06:28:14;11.90;99.90
46438;DHT22;32137;48.728;9.142;2023-11-19T06:30:40;12.00;99.90
46438;DHT22;32137;48.728;9.142;2023-11-19T06:33:06;11.40;99.90
46438;DHT22;32137;48.728;9.142;2023-11-19T06:35:32;11.50;99.90
46438;DHT22;32137;48.728;9.142;2023-11-19T06:38:04;12.00;99.90
46438;DHT22;32137;48.728;9.142;2023-11-19T06:40:30;11.60;99.90
46438;DHT22;32137;48.728;9.142;2023-11-19T06:42:56;11.90;99.90
46438;DHT22;32137;48.728;9.142;2023-11-19T06:45:21;11.90;99.90
46438;DHT22;32137;48.728;9.142;2023-11-19T06:47:47;11.70;99.90
46438;DHT22;32137;48.728;9.142;2023-11-19T06:50:12;11.90;99.90
46438;DHT22;32137;48.728;9.142;2023-11-19T06:52:38;12.00;99.90
46438;DHT22;32137;48.728;9.142;2023-11-19T06:55:04;11.60;99.90
46438;DHT22;32137;48.728;9.142;2023-11-19T06:57:29;11.70;99.90
46438;DHT22;32137;48.728;9.142;2023-11-19T06:59:57;11.70;99.90
46438;DHT22;32137;48.728;9.142;2023-11-19T07:02:23;12.00;99.90
46438;DHT22;32137;48.728;9.142;2023-11-19T07:04:48;11.80;99.90
46438;DHT22;32137;48.728;9.142;2023-11-19T07:07:14;12.10;99.90
46438;DHT22;32137;48.728;9.142;2023-11-19T07:09:40;11.80;99.90
46438;DHT22;32137;48.728;9.142;2023-11-19T07:12:06;11.80;99.90
46438;DHT22;32137;48.728;9.142;2023-11-19T07:14:31;11.60;99.90
46438;DHT22;32137;48.728;9.142;2023-11-19T07:16:57;11.60;99.90
46438;DHT22;32137;48.728;9.142;2023-11-19T07:19:22;11.70;99.90
46438;DHT22;32137;48.728;9.142;2023-11-19T07:21:48;12.00;99.90
46438;DHT22;32137;48.728;9.142;2023-11-19T07:24:13;12.10;99.90
46438;DHT22;32137;48.728;9.142;2023-11-19T07:26:43;11.70;99.90
46438;DHT22;32137;48.728;9.142;2023-11-19T07:29:09;11.70;99.90
46438;DHT22;32137;48.728;9.142;2023-11-19T07:31:34;12.10;99.90
46438;DHT22;32137;48.728;9.142;2023-11-19T07:33:59;11.70;99.90
46438;DHT22;32137;48.728;9.142;2023-11-19T07:36:25;12.20;99.90
46438;DHT22;32137;48.728;9.142;2023-11-19T07:38:50;12.10;99.90
46438;DHT22;32137;48.728;9.142;2023-11-19T07:41:16;11.80;99.90
46438;DHT22;32137;48.728;9.142;2023-11-19T07:43:43;12.20;99.90
46438;DHT22;32137;48.728;9.142;2023-11-19T07:46:12;12.20;99.90
46438;DHT22;32137;48.728;9.142;2023-11-19T07:48:38;11.80;99.90
46438;DHT22;32137;48.728;9.142;2023-11-19T07:51:04;11.90;99.90
46438;DHT22;32137;48.728;9.142;2023-11-19T07:53:29;12.20;99.90
46438;DHT22;32137;48.728;9.142;2023-11-19T07:55:55;12.00;99.90
46438;DHT22;32137;48.728;9.142;2023-11-19T07:58:21;11.80;99.90
46438;DHT22;32137;48.728;9.142;2023-11-19T08:00:46;12.30;99.90
46438;DHT22;32137;48.728;9.142;2023-11-19T08:03:12;12.00;99.90
46438;DHT22;32137;48.728;9.142;2023-11-19T08:05:37;12.20;99.90
46438;DHT22;32137;48.728;9.142;2023-11-19T08:08:03;12.20;99.90
46438;DHT22;32137;48.728;9.142;2023-11-19T08:10:28;12.40;99.90
46438;DHT22;32137;48.728;9.142;2023-11-19T08:12:54;11.90;99.90
46438;DHT22;32137;48.728;9.142;2023-11-19T08:15:20;12.00;99.90
46438;DHT22;32137;48.728;9.142;2023-11-19T08:17:45;12.10;99.90
46438;DHT22;32137;48.728;9.142;2023-11-19T08:20:11;12.40;99.90
46438;DHT22;32137;48.728;9.142;2023-11-19T08:22:37;12.40;99.90
46438;DHT22;32137;48.728;9.142;2023-11-19T08:25:04;12.30;99.90
46438;DHT22;32137;48.728;9.142;2023-11-19T08:27:29;12.10;99.90
46438;DHT22;32137;48.728;9.142;2023-11-19T08:29:55;12.10;99.90
46438;DHT22;32137;48.728;9.142;2023-11-19T08:32:24;12.10;99.90
46438;DHT22;32137;48.728;9.142;2023-11-19T08:34:50;12.60;99.90
46438;DHT22;32137;48.728;9.142;2023-11-19T08:37:15;12.60;99.90
46438;DHT22;32137;48.728;9.142;2023-11-19T08:39:43;12.70;99.90
46438;DHT22;32137;48.728;9.142;2023-11-19T08:42:08;12.60;99.90
46438;DHT22;32137;48.728;9.142;2023-11-19T08:44:34;13.00;99.90
46438;DHT22;32137;48.728;9.142;2023-11-19T08:46:59;12.70;99.90
46438;DHT22;32137;48.728;9.142;2023-11-19T08:49:25;13.10;99.90
46438;DHT22;32137;48.728;9.142;2023-11-19T08:51:51;12.70;99.90
46438;DHT22;32137;48.728;9.142;2023-11-19T08:54:16;13.10;99.90
46438;DHT22;32137;48.728;9.142;2023-11-19T08:56:42;12.90;99.90
46438;DHT22;32137;48.728;9.142;2023-11-19T08:59:07;13.20;99.90
46438;DHT22;32137;48.728;9.142;2023-11-19T09:01:34;13.10;99.90
46438;DHT22;32137;48.728;9.142;2023-11-19T09:03:59;12.60;99.90
46438;DHT22;32137;48.728;9.142;2023-11-19T09:06:25;13.00;99.90
46438;DHT22;32137;48.728;9.142;2023-11-19T09:08:50;12.80;99.90
46438;DHT22;32137;48.728;9.142;2023-11-19T09:11:16;12.70;99.90
46438;DHT22;32137;48.728;9.142;2023-11-19T09:13:41;12.80;99.90
46438;DHT22;32137;48.728;9.142;2023-11-19T09:16:07;13.10;99.90
46438;DHT22;32137;48.728;9.142;2023-11-19T09:18:34;13.50;99.90
46438;DHT22;32137;48.728;9.142;2023-11-19T09:21:00;13.30;99.90
46438;DHT22;32137;48.728;9.142;2023-11-19T09:23:25;13.40;99.90
46438;DHT22;32137;48.728;9.142;2023-11-19T09:25:53;12.80;99.90
46438;DHT22;32137;48.728;9.142;2023-11-19T09:28:18;12.90;99.90
46438;DHT22;32137;48.728;9.142;2023-11-19T09:30:44;13.40;99.90
46438;DHT22;32137;48.728;9.142;2023-11-19T09:33:09;13.00;99.90
46438;DHT22;32137;48.728;9.142;2023-11-19T09:35:35;13.20;99.90
46438;DHT22;32137;48.728;9.142;2023-11-19T09:38:00;13.10;99.90
46438;DHT22;32137;48.728;9.142;2023-11-19T09:40:27;13.20;99.90
46438;DHT22;32137;48.728;9.142;2023-11-19T09:42:53;13.60;99.90
46438;DHT22;32137;48.728;9.142;2023-11-19T09:45:20;13.00;99.90
46438;DHT22;32137;48.728;9.142;2023-11-19T09:47:46;13.60;99.90
46438;DHT22;32137;48.728;9.142;2023-11-19T09:50:16;13.50;99.90
46438;DHT22;32137;48.728;9.142;2023-11-19T09:52:42;13.40;99.90
46438;DHT22;32137;48.728;9.142;2023-11-19T09:55:08;13.20;99.90
46438;DHT22;32137;48.728;9.142;2023-11-19T09:57:34;13.20;99.90
46438;DHT22;32137;48.728;9.142;2023-11-19T10:00:00;13.00;99.90
46438;DHT22;32137;48.728;9.142;2023-11-19T10:02:26;13.60;99.90
46438;DHT22;32137;48.728;9.142;2023-11-19T10:04:52;12.90;99.90
46438;DHT22;32137;48.728;9.142;2023-11-19T10:07:18;13.00;99.90
46438;DHT22;32137;48.728;9.142;2023-11-19T10:09:44;13.60;99.90
46438;DHT22;32137;48.728;9.142;2023-11-19T10:12:09;13.50;99.90
46438;DHT22;32137;48.728;9.142;2023-11-19T10:14:35;13.10;99.90
46438;DHT22;32137;48.728;9.142;2023-11-19T10:17:03;13.60;99.90
46438;DHT22;32137;48.728;9.142;2023-11-19T10:19:29;13.20;99.90
46438;DHT22;32137;48.728;9.142;2023-11-19T10:21:55;13.50;99.90
46438;DHT22;32137;48.728;9.142;2023-11-19T10:24:31;13.30;99.90
46438;DHT22;32137;48.728;9.142;2023-11-19T10:26:56;13.90;99.90
46438;DHT22;32137;48.728;9.142;2023-11-19T10:29:23;13.60;99.90
46438;DHT22;32137;48.728;9.142;2023-11-19T10:31:58;13.50;99.90
46438;DHT22;32137;48.728;9.142;2023-11-19T10:34:24;14.00;99.90
46438;DHT22;32137;48.728;9.142;2023-11-19T10:36:50;13.90;99.90
46438;DHT22;32137;48.728;9.142;2023-11-19T10:39:15;14.10;99.90
46438;DHT22;32137;48.728;9.142;2023-11-19T10:41:41;13.70;99.90
46438;DHT22;32137;48.728;9.142;2023-11-19T10:44:09;13.40;99.90
46438;DHT22;32137;48.728;9.142;2023-11-19T10:49:04;14.00;99.90
46438;DHT22;32137;48.728;9.142;2023-11-19T10:51:30;13.40;99.90
46438;DHT22;32137;48.728;9.142;2023-11-19T10:53:57;13.30;99.90
46438;DHT22;32137;48.728;9.142;2023-11-19T10:56:26;14.00;99.90
46438;DHT22;32137;48.728;9.142;2023-11-19T10:58:55;14.10;99.90
46438;DHT22;32137;48.728;9.142;2023-11-19T11:01:24;13.90;99.90
46438;DHT22;32137;48.728;9.142;2023-11-19T11:03:52;13.50;99.90
46438;DHT22;32137;48.728;9.142;2023-11-19T11:06:19;14.20;99.90
46438;DHT22;32137;48.728;9.142;2023-11-19T11:08:45;14.10;99.90
46438;DHT22;32137;48.728;9.142;2023-11-19T11:11:11;13.80;99.90
46438;DHT22;32137;48.728;9.142;2023-11-19T11:13:39;13.80;99.90
46438;DHT22;32137;48.728;9.142;2023-11-19T11:16:06;13.80;99.90
46438;DHT22;32137;48.728;9.142;2023-11-19T11:18:33;13.60;99.90
46438;DHT22;32137;48.728;9.142;2023-11-19T11:29:04;14.50;99.90
46438;DHT22;32137;48.728;9.142;2023-11-19T11:36:53;14.30;99.90
46438;DHT22;32137;48.728;9.142;2023-11-19T11:39:22;13.90;99.90
46438;DHT22;32137;48.728;9.142;2023-11-19T11:41:47;13.90;99.90
46438;DHT22;32137;48.728;9.142;2023-11-19T11:44:13;13.50;99.90
46438;DHT22;32137;48.728;9.142;2023-11-19T11:49:04;14.20;99.90
46438;DHT22;32137;48.728;9.142;2023-11-19T11:54:07;13.60;99.90
46438;DHT22;32137;48.728;9.142;2023-11-19T11:56:38;14.10;99.90
46438;DHT22;32137;48.728;9.142;2023-11-19T11:59:23;13.40;99.90
46438;DHT22;32137;48.728;9.142;2023-11-19T12:01:58;14.10;99.90
46438;DHT22;32137;48.728;9.142;2023-11-19T12:04:27;13.90;99.90
46438;DHT22;32137;48.728;9.142;2023-11-19T12:07:06;13.40;99.90
46438;DHT22;32137;48.728;9.142;2023-11-19T12:09:32;13.40;99.90
46438;DHT22;32137;48.728;9.142;2023-11-19T12:18:05;13.50;99.90
46438;DHT22;32137;48.728;9.142;2023-11-19T12:20:12;13.50;99.90
46438;DHT22;32137;48.728;9.142;2023-11-19T12:22:38;13.20;99.90
46438;DHT22;32137;48.728;9.142;2023-11-19T12:25:04;13.90;99.90
46438;DHT22;32137;48.728;9.142;2023-11-19T12:27:30;13.50;99.90
46438;DHT22;32137;48.728;9.142;2023-11-19T12:29:55;14.00;99.90
46438;DHT22;32137;48.728;9.142;2023-11-19T12:32:22;14.10;99.90
46438;DHT22;32137;48.728;9.142;2023-11-19T12:34:47;13.60;99.90
46438;DHT22;32137;48.728;9.142;2023-11-19T12:37:13;13.50;99.90
46438;DHT22;32137;48.728;9.142;2023-11-19T12:39:38;13.80;99.90
46438;DHT22;32137;48.728;9.142;2023-11-19T12:42:04;13.80;99.90
46438;DHT22;32137;48.728;9.142;2023-11-19T12:44:30;14.20;99.90
46438;DHT22;32137;48.728;9.142;2023-11-19T12:47:14;13.70;99.90
46438;DHT22;32137;48.728;9.142;2023-11-19T12:49:39;13.60;99.90
46438;DHT22;32137;48.728;9.142;2023-11-19T12:52:11;13.60;99.90
46438;DHT22;32137;48.728;9.142;2023-11-19T12:54:37;14.10;99.90
46438;DHT22;32137;48.728;9.142;2023-11-19T12:57:03;13.40;99.90
46438;DHT22;32137;48.728;9.142;2023-11-19T12:59:30;13.60;99.90
46438;DHT22;32137;48.728;9.142;2023-11-19T13:01:59;13.80;99.90
46438;DHT22;32137;48.728;9.142;2023-11-19T13:04:28;13.50;99.90
46438;DHT22;32137;48.728;9.142;2023-11-19T13:06:56;13.70;99.90
46438;DHT22;32137;48.728;9.142;2023-11-19T13:09:22;13.60;99.90
46438;DHT22;32137;48.728;9.142;2023-11-19T13:11:49;13.60;99.90
46438;DHT22;32137;48.728;9.142;2023-11-19T13:14:15;13.40;99.90
46438;DHT22;32137;48.728;9.142;2023-11-19T13:16:40;13.30;99.90
46438;DHT22;32137;48.728;9.142;2023-11-19T13:19:07;13.30;99.90
46438;DHT22;32137;48.728;9.142;2023-11-19T13:21:34;13.40;99.90
46438;DHT22;32137;48.728;9.142;2023-11-19T13:23:59;13.30;99.90
46438;DHT22;32137;48.728;9.142;2023-11-19T13:26:25;13.60;99.90
46438;DHT22;32137;48.728;9.142;2023-11-19T13:28:50;13.70;99.90
46438;DHT22;32137;48.728;9.142;2023-11-19T13:31:16;13.20;99.90
46438;DHT22;32137;48.728;9.142;2023-11-19T13:33:42;13.90;99.90
46438;DHT22;32137;48.728;9.142;2023-11-19T13:36:07;13.90;99.90
46438;DHT22;32137;48.728;9.142;2023-11-19T13:38:34;13.70;99.90
46438;DHT22;32137;48.728;9.142;2023-11-19T13:41:03;13.90;99.90
46438;DHT22;32137;48.728;9.142;2023-11-19T13:43:29;13.40;99.90
46438;DHT22;32137;48.728;9.142;2023-11-19T13:45:55;13.60;99.90
46438;DHT22;32137;48.728;9.142;2023-11-19T13:48:21;13.30;99.90
46438;DHT22;32137;48.728;9.142;2023-11-19T13:50:46;13.20;99.90
46438;DHT22;32137;48.728;9.142;2023-11-19T13:53:12;13.00;99.90
46438;DHT22;32137;48.728;9.142;2023-11-19T13:55:38;13.10;99.90
46438;DHT22;32137;48.728;9.142;2023-11-19T13:58:03;13.20;99.90
46438;DHT22;32137;48.728;9.142;2023-11-19T14:00:28;13.40;99.90
46438;DHT22;32137;48.728;9.142;2023-11-19T14:02:54;13.30;99.90
46438;DHT22;32137;48.728;9.142;2023-11-19T14:05:19;13.40;99.90
46438;DHT22;32137;48.728;9.142;2023-11-19T14:07:45;13.50;99.90
46438;DHT22;32137;48.728;9.142;2023-11-19T14:10:14;13.70;99.90
46438;DHT22;32137;48.728;9.142;2023-11-19T14:12:40;13.40;99.90
46438;DHT22;32137;48.728;9.142;2023-11-19T14:15:06;13.30;99.90
46438;DHT22;32137;48.728;9.142;2023-11-19T14:17:32;13.80;99.90
46438;DHT22;32137;48.728;9.142;2023-11-19T14:19:57;13.50;99.90
46438;DHT22;32137;48.728;9.142;2023-11-19T14:22:23;13.50;99.90
46438;DHT22;32137;48.728;9.142;2023-11-19T14:24:49;13.40;99.90
46438;DHT22;32137;48.728;9.142;2023-11-19T14:27:14;13.50;99.90
46438;DHT22;32137;48.728;9.142;2023-11-19T14:29:40;13.50;99.90
46438;DHT22;32137;48.728;9.142;2023-11-19T14:32:05;13.60;99.90
46438;DHT22;32137;48.728;9.142;2023-11-19T14:34:31;13.50;99.90
46438;DHT22;32137;48.728;9.142;2023-11-19T14:37:00;13.30;99.90
46438;DHT22;32137;48.728;9.142;2023-11-19T14:39:26;13.40;99.90
46438;DHT22;32137;48.728;9.142;2023-11-19T14:41:51;13.50;99.90
46438;DHT22;32137;48.728;9.142;2023-11-19T14:44:18;13.50;99.90
46438;DHT22;32137;48.728;9.142;2023-11-19T14:46:45;13.70;99.90
46438;DHT22;32137;48.728;9.142;2023-11-19T14:49:10;13.30;99.90
46438;DHT22;32137;48.728;9.142;2023-11-19T14:51:39;13.50;99.90
46438;DHT22;32137;48.728;9.142;2023-11-19T14:54:04;13.40;99.90
46438;DHT22;32137;48.728;9.142;2023-11-19T14:56:30;13.30;99.90
46438;DHT22;32137;48.728;9.142;2023-11-19T14:58:55;13.20;99.90
46438;DHT22;32137;48.728;9.142;2023-11-19T15:01:21;13.20;99.90
46438;DHT22;32137;48.728;9.142;2023-11-19T15:03:46;13.00;99.90
46438;DHT22;32137;48.728;9.142;2023-11-19T15:06:12;12.80;99.90
46438;DHT22;32137;48.728;9.142;2023-11-19T15:08:37;12.90;99.90
46438;DHT22;32137;48.728;9.142;2023-11-19T15:11:03;12.90;99.90
46438;DHT22;32137;48.728;9.142;2023-11-19T15:13:30;12.60;99.90
46438;DHT22;32137;48.728;9.142;2023-11-19T15:15:56;12.50;99.90
46438;DHT22;32137;48.728;9.142;2023-11-19T15:18:22;12.40;99.90
46438;DHT22;32137;48.728;9.142;2023-11-19T15:20:48;12.60;99.90
46438;DHT22;32137;48.728;9.142;2023-11-19T15:23:14;12.50;99.90
46438;DHT22;32137;48.728;9.142;2023-11-19T15:25:41;12.30;99.90
46438;DHT22;32137;48.728;9.142;2023-11-19T15:28:07;12.20;99.90
46438;DHT22;32137;48.728;9.142;2023-11-19T15:30:32;12.30;99.90
46438;DHT22;32137;48.728;9.142;2023-11-19T15:32:58;12.30;99.90
46438;DHT22;32137;48.728;9.142;2023-11-19T15:35:23;12.20;99.90
46438;DHT22;32137;48.728;9.142;2023-11-19T15:37:48;12.20;99.90
46438;DHT22;32137;48.728;9.142;2023-11-19T15:40:14;12.10;99.90
46438;DHT22;32137;48.728;9.142;2023-11-19T15:42:40;12.20;99.90
46438;DHT22;32137;48.728;9.142;2023-11-19T15:45:06;12.00;99.90
46438;DHT22;32137;48.728;9.142;2023-11-19T15:47:34;12.00;99.90
46438;DHT22;32137;48.728;9.142;2023-11-19T15:50:01;12.00;99.90
46438;DHT22;32137;48.728;9.142;2023-11-19T15:52:26;12.20;99.90